createdAt,value
2019-04-20T00:01:32.627Z,15.35
2019-04-20T00:04:03.252Z,15.36
2019-04-20T00:06:40.646Z,15.35
2019-04-20T00:09:12.052Z,15.37
2019-04-20T00:11:51.704Z,15.38
2019-04-20T00:14:14.472Z,15.38
2019-04-20T00:16:39.921Z,15.39
2019-04-20T00:19:10.655Z,15.42
2019-04-20T00:21:59.456Z,15.42
2019-04-20T00:24:29.211Z,15.44
2019-04-20T00:27:31.295Z,15.46
2019-04-20T00:29:46.611Z,15.46
2019-04-20T00:32:09.857Z,15.49
2019-04-20T00:34:34.814Z,15.52
2019-04-20T00:37:00.403Z,15.54
2019-04-20T00:39:30.015Z,15.56
2019-04-20T00:42:04.413Z,15.57
2019-04-20T00:44:35.961Z,15.58
2019-04-20T00:47:13.333Z,15.60
2019-04-20T00:49:50.891Z,15.61
2019-04-20T00:54:37.082Z,15.65
2019-04-20T00:57:20.399Z,15.68
2019-04-20T00:59:59.222Z,15.70
2019-04-20T01:02:21.006Z,15.72
2019-04-20T01:04:58.383Z,15.73
2019-04-20T01:07:24.312Z,15.73
2019-04-20T01:10:05.025Z,15.70
2019-04-20T01:12:37.461Z,15.67
2019-04-20T01:15:12.870Z,15.65
2019-04-20T01:17:41.586Z,15.63
2019-04-20T01:20:12.640Z,15.59
2019-04-20T01:22:48.174Z,15.53
2019-04-20T01:25:23.085Z,15.48
2019-04-20T01:28:06.739Z,15.42
2019-04-20T01:30:24.904Z,15.35
2019-04-20T01:33:00.082Z,15.28
2019-04-20T01:35:38.274Z,15.21
2019-04-20T01:38:09.557Z,15.12
2019-04-20T01:40:21.356Z,15.04
2019-04-20T01:42:51.239Z,14.94
2019-04-20T01:45:27.369Z,14.86
2019-04-20T01:47:55.864Z,14.76
2019-04-20T01:50:27.623Z,14.66
2019-04-20T01:53:06.896Z,14.57
2019-04-20T01:55:55.999Z,14.46
2019-04-20T01:58:17.671Z,14.38
2019-04-20T02:00:40.745Z,14.28
2019-04-20T02:03:31.373Z,14.20
2019-04-20T02:06:03.562Z,14.10
2019-04-20T02:08:32.338Z,14.00
2019-04-20T02:11:05.424Z,13.90
2019-04-20T02:13:39.048Z,13.79
2019-04-20T02:16:11.445Z,13.70
2019-04-20T02:18:44.094Z,13.61
2019-04-20T02:21:24.764Z,13.51
2019-04-20T02:23:46.372Z,13.42
2019-04-20T02:26:09.254Z,13.32
2019-04-20T02:29:09.548Z,13.25
2019-04-20T02:34:23.874Z,13.07
2019-04-20T02:37:00.986Z,12.98
2019-04-20T02:41:57.956Z,12.80
2019-04-20T02:44:36.816Z,12.72
2019-04-20T02:52:02.946Z,12.45
2019-04-20T02:57:10.685Z,12.29
2019-04-20T03:01:55.318Z,12.11
2019-04-20T03:04:21.462Z,12.04
2019-04-20T03:06:55.931Z,11.97
2019-04-20T03:09:33.010Z,11.90
2019-04-20T03:12:06.170Z,11.82
2019-04-20T03:14:26.501Z,11.74
2019-04-20T03:17:04.341Z,11.68
2019-04-20T03:19:28.861Z,11.61
2019-04-20T03:22:09.494Z,11.55
2019-04-20T03:24:44.084Z,11.47
2019-04-20T03:27:07.534Z,11.40
2019-04-20T03:29:51.016Z,11.35
2019-04-20T03:32:49.804Z,11.29
2019-04-20T03:35:12.148Z,11.22
2019-04-20T03:37:33.395Z,11.16
2019-04-20T03:39:47.619Z,11.10
2019-04-20T03:42:07.549Z,11.04
2019-04-20T03:44:39.436Z,10.98
2019-04-20T03:47:13.525Z,10.93
2019-04-20T03:50:00.985Z,10.88
2019-04-20T03:52:36.523Z,10.81
2019-04-20T03:58:02.912Z,10.71
2019-04-20T04:00:36.271Z,10.65
2019-04-20T04:03:34.968Z,10.60
2019-04-20T04:05:51.928Z,10.55
2019-04-20T04:08:19.212Z,10.50
2019-04-20T04:11:03.228Z,10.44
2019-04-20T04:13:16.974Z,10.40
2019-04-20T04:15:51.931Z,10.35
2019-04-20T04:18:28.088Z,10.31
2019-04-20T04:21:01.389Z,10.28
2019-04-20T04:23:40.924Z,10.24
2019-04-20T04:26:12.645Z,10.20
2019-04-20T04:28:40.680Z,10.17
2019-04-20T04:31:15.714Z,10.14
2019-04-20T04:36:15.494Z,10.08
2019-04-20T04:38:53.395Z,10.04
2019-04-20T04:41:23.981Z,10.01
2019-04-20T04:44:00.402Z,9.97
2019-04-20T04:46:05.840Z,9.93
2019-04-20T04:48:40.416Z,9.89
2019-04-20T04:51:14.895Z,9.88
2019-04-20T04:53:47.906Z,9.86
2019-04-20T04:56:13.189Z,9.84
2019-04-20T04:58:40.620Z,9.83
2019-04-20T05:01:16.650Z,9.83
2019-04-20T05:04:05.239Z,9.82
2019-04-20T05:06:31.702Z,9.83
2019-04-20T05:08:51.368Z,9.82
2019-04-20T05:11:17.309Z,9.83
2019-04-20T05:13:54.675Z,9.84
2019-04-20T05:16:38.554Z,9.87
2019-04-20T05:19:13.380Z,9.87
2019-04-20T05:21:49.606Z,9.88
2019-04-20T05:24:25.547Z,9.87
2019-04-20T05:27:09.395Z,9.88
2019-04-20T05:29:21.502Z,9.92
2019-04-20T05:31:52.896Z,9.94
2019-04-20T05:34:38.931Z,9.99
2019-04-20T05:37:17.985Z,10.03
2019-04-20T05:39:41.231Z,10.08
2019-04-20T05:42:12.681Z,10.14
2019-04-20T05:44:47.353Z,10.20
2019-04-20T05:47:19.924Z,10.26
2019-04-20T05:49:46.839Z,10.35
2019-04-20T05:52:30.781Z,10.42
2019-04-20T05:54:50.864Z,10.50
2019-04-20T05:57:25.954Z,10.58
2019-04-20T05:59:55.715Z,10.67
2019-04-20T06:02:23.364Z,10.77
2019-04-20T06:07:26.671Z,10.97
2019-04-20T06:09:59.433Z,11.08
2019-04-20T06:12:33.177Z,11.19
2019-04-20T06:14:56.717Z,11.31
2019-04-20T06:17:31.994Z,11.42
2019-04-20T06:20:06.148Z,11.53
2019-04-20T06:22:59.496Z,11.68
2019-04-20T06:25:42.269Z,11.80
2019-04-20T06:28:05.194Z,11.92
2019-04-20T06:30:13.579Z,12.07
2019-04-20T06:34:01.358Z,12.20
2019-04-20T06:38:57.410Z,12.53
2019-04-20T06:41:33.097Z,12.67
2019-04-20T06:43:54.177Z,12.81
2019-04-20T06:46:22.297Z,12.98
2019-04-20T06:49:06.442Z,13.12
2019-04-20T06:52:02.801Z,13.29
2019-04-20T06:54:38.417Z,13.44
2019-04-20T06:57:11.503Z,13.66
2019-04-20T06:59:43.463Z,13.84
2019-04-20T07:02:17.195Z,14.00
2019-04-20T07:04:57.984Z,14.18
2019-04-20T07:07:14.447Z,14.34
2019-04-20T07:09:54.531Z,14.53
2019-04-20T07:12:12.598Z,14.70
2019-04-20T07:14:40.585Z,14.91
2019-04-20T07:20:00.358Z,15.26
2019-04-20T07:22:36.133Z,15.48
2019-04-20T07:25:23.157Z,15.65
2019-04-20T07:27:34.937Z,15.83
2019-04-20T07:30:10.776Z,16.02
2019-04-20T07:32:48.408Z,16.23
2019-04-20T07:35:08.474Z,16.44
2019-04-20T07:40:16.334Z,16.82
2019-04-20T07:42:47.910Z,17.02
2019-04-20T07:45:24.526Z,17.21
2019-04-20T07:50:16.033Z,17.59
2019-04-20T07:52:42.642Z,17.79
2019-04-20T07:57:47.119Z,18.16
2019-04-20T08:00:35.478Z,18.34
2019-04-20T08:03:25.908Z,18.53
2019-04-20T08:05:44.279Z,18.72
2019-04-20T08:08:21.001Z,18.92
2019-04-20T08:10:51.972Z,19.08
2019-04-20T08:13:32.937Z,19.24
2019-04-20T08:18:35.149Z,19.55
2019-04-20T08:21:02.688Z,19.70
2019-04-20T08:23:29.787Z,19.85
2019-04-20T08:25:56.076Z,20.01
2019-04-20T08:28:23.307Z,20.16
2019-04-20T08:31:06.656Z,20.32
2019-04-20T08:33:46.436Z,20.45
2019-04-20T08:36:17.132Z,20.59
2019-04-20T08:41:12.934Z,20.86
2019-04-20T08:46:20.623Z,21.12
2019-04-20T08:48:51.969Z,21.25
2019-04-20T08:51:22.660Z,21.37
2019-04-20T08:53:51.848Z,21.50
2019-04-20T08:56:19.746Z,21.60
2019-04-20T08:58:36.229Z,21.73
2019-04-20T09:01:08.598Z,21.84
2019-04-20T09:03:51.216Z,21.93
2019-04-20T09:06:23.757Z,22.06
2019-04-20T09:08:51.859Z,22.18
2019-04-20T09:11:30.909Z,22.29
2019-04-20T09:13:49.663Z,22.41
2019-04-20T09:16:15.333Z,22.53
2019-04-20T09:18:54.699Z,22.63
2019-04-20T09:21:28.819Z,22.72
2019-04-20T09:24:14.591Z,22.82
2019-04-20T09:26:42.940Z,22.90
2019-04-20T09:29:07.121Z,22.98
2019-04-20T09:31:39.266Z,23.10
2019-04-20T09:34:24.976Z,23.19
2019-04-20T09:36:54.017Z,23.31
2019-04-20T09:39:28.382Z,23.42
2019-04-20T09:42:07.803Z,23.51
2019-04-20T09:44:42.662Z,23.61
2019-04-20T09:47:10.548Z,23.72
2019-04-20T09:49:54.377Z,23.81
2019-04-20T09:52:28.281Z,23.90
2019-04-20T09:55:00.478Z,23.97
2019-04-20T09:57:33.931Z,24.06
2019-04-20T10:00:02.930Z,24.14
2019-04-20T10:02:23.371Z,24.22
2019-04-20T10:04:47.595Z,24.29
2019-04-20T10:07:21.361Z,24.38
2019-04-20T10:09:49.004Z,24.46
2019-04-20T10:12:19.836Z,24.54
2019-04-20T10:14:49.296Z,24.63
2019-04-20T10:17:20.112Z,24.71
2019-04-20T10:19:49.779Z,24.76
2019-04-20T10:22:20.467Z,24.81
2019-04-20T10:24:50.908Z,24.88
2019-04-20T10:27:21.186Z,24.94
2019-04-20T10:29:51.466Z,25.02
2019-04-20T10:32:25.094Z,25.11
2019-04-20T10:34:52.746Z,25.19
2019-04-20T10:37:24.053Z,25.27
2019-04-20T10:39:54.422Z,25.36
2019-04-20T10:42:24.125Z,25.46
2019-04-20T10:44:56.756Z,25.51
2019-04-20T10:47:25.462Z,25.58
2019-04-20T10:49:56.314Z,25.65
2019-04-20T10:52:26.204Z,25.72
2019-04-20T10:54:56.553Z,25.77
2019-04-20T10:57:26.180Z,25.86
2019-04-20T10:59:55.693Z,25.92
2019-04-20T11:02:25.876Z,25.98
2019-04-20T11:04:56.885Z,26.04
2019-04-20T11:07:26.677Z,26.09
2019-04-20T11:10:07.989Z,26.15
2019-04-20T11:12:28.430Z,26.21
2019-04-20T11:15:00.548Z,26.29
2019-04-20T11:17:31.705Z,26.37
2019-04-20T11:20:01.516Z,26.44
2019-04-20T11:22:32.490Z,26.50
2019-04-20T11:25:02.198Z,26.54
2019-04-20T11:27:32.203Z,26.59
2019-04-20T11:30:02.486Z,26.63
2019-04-20T11:32:32.100Z,26.67
2019-04-20T11:35:09.064Z,26.71
2019-04-20T11:37:33.209Z,26.75
2019-04-20T11:40:03.229Z,26.79
2019-04-20T11:42:32.939Z,26.83
2019-04-20T11:45:02.794Z,26.89
2019-04-20T11:47:33.607Z,26.95
2019-04-20T11:50:03.936Z,27.01
2019-04-20T11:52:38.824Z,27.07
2019-04-20T11:55:08.574Z,27.10
2019-04-20T11:57:39.238Z,27.12
2019-04-20T12:00:15.089Z,27.13
2019-04-20T12:02:47.478Z,27.18
2019-04-20T12:05:29.819Z,27.23
2019-04-20T12:07:56.617Z,27.27
2019-04-20T12:10:28.313Z,27.31
2019-04-20T12:12:59.614Z,27.35
2019-04-20T12:15:32.230Z,27.38
2019-04-20T12:18:01.868Z,27.39
2019-04-20T12:20:32.523Z,27.42
2019-04-20T12:23:02.241Z,27.43
2019-04-20T12:25:34.534Z,27.44
2019-04-20T12:28:05.272Z,27.45
2019-04-20T12:30:35.533Z,27.47
2019-04-20T12:33:05.763Z,27.49
2019-04-20T12:35:36.193Z,27.54
2019-04-20T12:38:07.198Z,27.57
2019-04-20T12:40:37.923Z,27.60
2019-04-20T12:43:08.854Z,27.64
2019-04-20T12:45:39.912Z,27.67
2019-04-20T12:48:09.678Z,27.69
2019-04-20T12:50:39.609Z,27.71
2019-04-20T12:53:09.066Z,27.72
2019-04-20T12:55:38.983Z,27.73
2019-04-20T12:58:08.624Z,27.76
2019-04-20T13:00:49.611Z,27.79
2019-04-20T13:03:19.739Z,27.82
2019-04-20T13:05:50.081Z,27.84
2019-04-20T13:08:28.454Z,27.87
2019-04-20T13:10:55.673Z,27.90
2019-04-20T13:13:40.714Z,27.93
2019-04-20T13:16:12.328Z,27.96
2019-04-20T13:18:43.628Z,28.00
2019-04-20T13:21:13.426Z,28.04
2019-04-20T13:23:44.791Z,28.08
2019-04-20T13:26:15.644Z,28.10
2019-04-20T13:28:46.792Z,28.12
2019-04-20T13:31:17.675Z,28.13
2019-04-20T13:33:47.636Z,28.17
2019-04-20T13:36:17.301Z,28.18
2019-04-20T13:38:48.000Z,28.21
2019-04-20T13:41:17.885Z,28.22
2019-04-20T13:43:48.088Z,28.23
2019-04-20T13:46:18.862Z,28.23
2019-04-20T13:48:48.961Z,28.24
2019-04-20T13:51:18.954Z,28.23
2019-04-20T13:53:48.564Z,28.20
2019-04-20T13:56:21.626Z,28.18
2019-04-20T13:58:54.879Z,28.15
2019-04-20T14:01:30.675Z,28.14
2019-04-20T14:04:03.085Z,28.14
2019-04-20T14:06:35.268Z,28.16
2019-04-20T14:09:09.640Z,28.18
2019-04-20T14:11:39.495Z,28.20
2019-04-20T14:14:10.746Z,28.21
2019-04-20T14:16:41.194Z,28.24
2019-04-20T14:19:11.401Z,28.27
2019-04-20T14:21:41.740Z,28.30
2019-04-20T14:24:12.968Z,28.33
2019-04-20T14:26:44.580Z,28.34
2019-04-20T14:29:14.802Z,28.32
2019-04-20T14:31:48.012Z,28.31
2019-04-20T14:34:17.657Z,28.27
2019-04-20T14:36:47.134Z,28.25
2019-04-20T14:39:16.746Z,28.22
2019-04-20T14:41:46.512Z,28.21
2019-04-20T14:44:16.240Z,28.20
2019-04-20T14:46:45.829Z,28.19
2019-04-20T14:49:16.549Z,28.17
2019-04-20T14:51:46.185Z,28.17
2019-04-20T14:54:17.071Z,28.19
2019-04-20T14:56:47.570Z,28.20
2019-04-20T14:59:19.853Z,28.18
2019-04-20T15:01:52.409Z,28.16
2019-04-20T15:04:24.916Z,28.14
2019-04-20T15:06:54.740Z,28.13
2019-04-20T15:09:24.751Z,28.13
2019-04-20T15:11:54.860Z,28.13
2019-04-20T15:14:24.855Z,28.12
2019-04-20T15:16:54.573Z,28.12
2019-04-20T15:19:25.747Z,28.11
2019-04-20T15:21:57.747Z,28.08
2019-04-20T15:24:27.424Z,28.07
2019-04-20T15:26:58.730Z,28.07
2019-04-20T15:29:28.560Z,28.05
2019-04-20T15:31:58.252Z,28.01
2019-04-20T15:34:28.876Z,27.98
2019-04-20T15:36:58.532Z,27.94
2019-04-20T15:39:29.367Z,27.90
2019-04-20T15:41:59.296Z,27.85
2019-04-20T15:44:29.284Z,27.80
2019-04-20T15:46:59.416Z,27.76
2019-04-20T15:49:29.634Z,27.69
2019-04-20T15:51:59.762Z,27.60
2019-04-20T15:54:29.648Z,27.49
2019-04-20T15:57:04.525Z,27.39
2019-04-20T15:59:30.732Z,27.29
2019-04-20T16:02:07.622Z,27.18
2019-04-20T16:04:49.149Z,27.08
2019-04-20T16:07:21.424Z,26.98
2019-04-20T16:09:51.645Z,26.86
2019-04-20T16:12:22.746Z,26.76
2019-04-20T16:14:53.517Z,26.66
2019-04-20T16:17:30.801Z,26.57
2019-04-20T16:20:01.402Z,26.48
2019-04-20T16:22:26.922Z,26.40
2019-04-20T16:25:07.570Z,26.33
2019-04-20T16:27:38.047Z,26.27
2019-04-20T16:30:09.669Z,26.23
2019-04-20T16:32:40.664Z,26.22
2019-04-20T16:35:10.967Z,26.23
2019-04-20T16:37:40.605Z,26.28
2019-04-20T16:40:11.645Z,26.32
2019-04-20T16:42:42.694Z,26.40
2019-04-20T16:45:12.704Z,26.48
2019-04-20T16:47:42.348Z,26.59
2019-04-20T16:50:13.075Z,26.70
2019-04-20T16:52:43.167Z,26.78
2019-04-20T16:55:13.025Z,26.79
2019-04-20T16:57:46.166Z,26.74
2019-04-20T17:00:15.538Z,26.66
2019-04-20T17:02:45.261Z,26.57
2019-04-20T17:05:15.131Z,26.48
2019-04-20T17:07:46.997Z,26.37
2019-04-20T17:10:18.107Z,26.31
2019-04-20T17:12:48.064Z,26.31
2019-04-20T17:15:21.324Z,26.26
2019-04-20T17:17:52.877Z,26.17
2019-04-20T17:20:25.102Z,26.11
2019-04-20T17:22:54.256Z,26.10
2019-04-20T17:25:24.118Z,26.12
2019-04-20T17:28:07.238Z,26.23
2019-04-20T17:30:50.927Z,26.42
2019-04-20T17:33:26.510Z,26.61
2019-04-20T17:36:04.580Z,26.83
2019-04-20T17:38:34.709Z,27.05
2019-04-20T17:41:13.776Z,27.24
2019-04-20T17:43:43.754Z,27.39
2019-04-20T17:46:10.382Z,27.51
2019-04-20T17:48:46.957Z,27.62
2019-04-20T17:51:27.748Z,27.70
2019-04-20T17:53:50.884Z,27.74
2019-04-20T17:56:15.289Z,27.74
2019-04-20T17:58:50.133Z,27.72
2019-04-20T18:07:41.202Z,27.09
2019-04-20T18:10:17.438Z,26.68
2019-04-20T18:12:37.471Z,26.23
2019-04-20T18:15:23.093Z,25.83
2019-04-20T18:17:54.717Z,25.45
2019-04-20T18:20:16.818Z,25.11
2019-04-20T18:22:51.718Z,24.79
2019-04-20T18:25:49.943Z,24.50
2019-04-20T18:28:04.129Z,24.24
2019-04-20T18:30:39.006Z,23.99
2019-04-20T18:32:59.360Z,23.75
2019-04-20T18:35:34.907Z,23.52
2019-04-20T18:38:04.659Z,23.31
2019-04-20T18:40:39.862Z,23.12
2019-04-20T18:43:08.165Z,22.94
2019-04-20T18:45:52.646Z,22.75
2019-04-20T18:48:25.034Z,22.58
2019-04-20T18:50:40.776Z,22.40
2019-04-20T18:53:14.752Z,22.24
2019-04-20T18:55:46.810Z,22.09
2019-04-20T18:58:11.172Z,21.94
2019-04-20T19:00:45.390Z,21.79
2019-04-20T19:03:20.564Z,21.65
2019-04-20T19:05:43.911Z,21.51
2019-04-20T19:08:16.302Z,21.39
2019-04-20T19:10:52.219Z,21.27
2019-04-20T19:13:37.608Z,21.13
2019-04-20T19:16:20.941Z,21.02
2019-04-20T19:18:54.856Z,20.90
2019-04-20T19:21:13.088Z,20.79
2019-04-20T19:23:54.881Z,20.70
2019-04-20T19:26:18.066Z,20.60
2019-04-20T19:28:52.775Z,20.54
2019-04-20T19:31:35.203Z,20.47
2019-04-20T19:34:06.226Z,20.39
2019-04-20T19:36:28.798Z,20.33
2019-04-20T19:39:08.523Z,20.27
2019-04-20T19:41:32.067Z,20.20
2019-04-20T19:44:07.017Z,20.15
2019-04-20T19:47:00.857Z,20.10
2019-04-20T19:49:07.910Z,20.05
2019-04-20T19:51:48.097Z,19.99
2019-04-20T19:54:22.505Z,19.97
2019-04-20T19:56:47.163Z,19.92
2019-04-20T19:59:13.641Z,19.86
2019-04-20T20:01:33.736Z,19.83
2019-04-20T20:04:06.455Z,19.80
2019-04-20T20:06:43.698Z,19.77
2019-04-20T20:09:27.995Z,19.74
2019-04-20T20:12:03.773Z,19.71
2019-04-20T20:14:36.510Z,19.68
2019-04-20T20:17:25.212Z,19.65
2019-04-20T20:19:54.434Z,19.62
2019-04-20T20:22:17.403Z,19.60
2019-04-20T20:24:34.169Z,19.56
2019-04-20T20:27:11.674Z,19.52
2019-04-20T20:29:41.298Z,19.48
2019-04-20T20:32:17.648Z,19.45
2019-04-20T20:34:42.175Z,19.42
2019-04-20T20:37:14.095Z,19.38
2019-04-20T20:39:42.153Z,19.34
2019-04-20T20:42:23.417Z,19.31
2019-04-20T20:44:50.594Z,19.27
2019-04-20T20:47:39.872Z,19.21
2019-04-20T20:50:11.293Z,19.18
2019-04-20T20:52:31.554Z,19.14
2019-04-20T20:54:59.076Z,19.11
2019-04-20T20:57:24.351Z,19.06
2019-04-20T20:59:57.479Z,19.03
2019-04-20T21:02:33.666Z,18.99
2019-04-20T21:04:53.566Z,18.95
2019-04-20T21:07:24.631Z,18.92
2019-04-20T21:09:54.467Z,18.88
2019-04-20T21:12:25.753Z,18.85
2019-04-20T21:15:00.463Z,18.83
2019-04-20T21:17:39.371Z,18.79
2019-04-20T21:20:18.291Z,18.76
2019-04-20T21:22:53.427Z,18.72
2019-04-20T21:25:03.505Z,18.69
2019-04-20T21:27:33.119Z,18.65
2019-04-20T21:30:04.046Z,18.61
2019-04-20T21:32:39.679Z,18.55
2019-04-20T21:35:10.403Z,18.50
2019-04-20T21:37:42.268Z,18.45
2019-04-20T21:40:21.585Z,18.39
2019-04-20T21:42:49.681Z,18.34
2019-04-20T21:45:20.042Z,18.28
2019-04-20T21:47:46.421Z,18.24
2019-04-20T21:50:33.918Z,18.18
2019-04-20T21:52:52.001Z,18.15
2019-04-20T21:55:18.674Z,18.10
2019-04-20T21:57:51.577Z,18.05
2019-04-20T22:00:42.267Z,18.01
2019-04-20T22:03:11.511Z,17.98
2019-04-20T22:05:40.662Z,17.91
2019-04-20T22:08:14.043Z,17.86
2019-04-20T22:10:42.822Z,17.83
2019-04-20T22:13:14.019Z,17.80
2019-04-20T22:15:51.844Z,17.76
2019-04-20T22:18:20.070Z,17.72
2019-04-20T22:20:57.878Z,17.68
2019-04-20T22:23:36.572Z,17.65
2019-04-20T22:26:03.418Z,17.62
2019-04-20T22:28:20.402Z,17.58
2019-04-20T22:30:50.373Z,17.55
2019-04-20T22:33:39.956Z,17.52
2019-04-20T22:36:10.831Z,17.48
2019-04-20T22:38:59.819Z,17.44
2019-04-20T22:41:28.407Z,17.41
2019-04-20T22:44:02.762Z,17.36
2019-04-20T22:46:33.720Z,17.32
2019-04-20T22:49:19.124Z,17.28
2019-04-20T22:51:44.808Z,17.25
2019-04-20T22:54:21.617Z,17.22
2019-04-20T22:56:48.294Z,17.18
2019-04-20T22:59:13.046Z,17.16
2019-04-20T23:01:45.744Z,17.13
2019-04-20T23:04:10.854Z,17.09
2019-04-20T23:06:44.700Z,17.06
2019-04-20T23:09:14.623Z,17.02
2019-04-20T23:11:43.458Z,16.98
2019-04-20T23:14:14.360Z,16.94
2019-04-20T23:16:49.266Z,16.89
2019-04-20T23:19:28.194Z,16.85
2019-04-20T23:21:54.633Z,16.80
2019-04-20T23:24:18.891Z,16.77
2019-04-20T23:26:50.711Z,16.71
2019-04-20T23:29:22.681Z,16.65
2019-04-20T23:31:58.761Z,16.61
2019-04-20T23:34:26.599Z,16.55
2019-04-20T23:36:54.791Z,16.50
2019-04-20T23:39:34.102Z,16.44
2019-04-20T23:42:01.489Z,16.39
2019-04-20T23:44:33.998Z,16.34
2019-04-20T23:47:20.105Z,16.29
2019-04-20T23:50:04.385Z,16.24
2019-04-20T23:52:42.668Z,16.19
2019-04-20T23:55:00.462Z,16.13
2019-04-20T23:57:23.959Z,16.09
2019-04-20T23:59:54.934Z,16.03
